sensor_id;sensor_type;location;lat;lon;timestamp;P1;durP1;ratioP1;P2;durP2;ratioP2
9392;SDS011;4736;52.508;13.422;2023-04-24T00:00:54;6.30;;;6.00;;
9392;SDS011;4736;52.508;13.422;2023-04-24T00:03:58;7.00;;;6.60;;
9392;SDS011;4736;52.508;13.422;2023-04-24T00:07:03;6.73;;;6.23;;
9392;SDS011;4736;52.508;13.422;2023-04-24T00:10:08;6.67;;;6.37;;
9392;SDS011;4736;52.508;13.422;2023-04-24T00:13:13;6.67;;;6.30;;
9392;SDS011;4736;52.508;13.422;2023-04-24T00:16:16;6.73;;;6.23;;
9392;SDS011;4736;52.508;13.422;2023-04-24T00:19:20;5.87;;;5.57;;
9392;SDS011;4736;52.508;13.422;2023-04-24T00:22:23;7.63;;;7.07;;
9392;SDS011;4736;52.508;13.422;2023-04-24T00:25:27;7.17;;;6.77;;
9392;SDS011;4736;52.508;13.422;2023-04-24T00:28:31;6.67;;;6.40;;
9392;SDS011;4736;52.508;13.422;2023-04-24T00:31:35;6.40;;;6.20;;
9392;SDS011;4736;52.508;13.422;2023-04-24T00:34:38;7.67;;;7.07;;
9392;SDS011;4736;52.508;13.422;2023-04-24T00:37:41;7.57;;;7.07;;
9392;SDS011;4736;52.508;13.422;2023-04-24T00:40:45;7.13;;;6.83;;
9392;SDS011;4736;52.508;13.422;2023-04-24T00:43:50;7.10;;;6.70;;
9392;SDS011;4736;52.508;13.422;2023-04-24T00:46:54;6.83;;;6.43;;
9392;SDS011;4736;52.508;13.422;2023-04-24T00:49:57;7.27;;;6.87;;
9392;SDS011;4736;52.508;13.422;2023-04-24T00:53:00;7.20;;;6.80;;
9392;SDS011;4736;52.508;13.422;2023-04-24T00:56:04;7.07;;;6.70;;
9392;SDS011;4736;52.508;13.422;2023-04-24T00:59:09;7.90;;;7.40;;
9392;SDS011;4736;52.508;13.422;2023-04-24T01:02:12;7.07;;;6.77;;
9392;SDS011;4736;52.508;13.422;2023-04-24T01:05:17;7.63;;;7.13;;
9392;SDS011;4736;52.508;13.422;2023-04-24T01:08:20;7.80;;;7.40;;
9392;SDS011;4736;52.508;13.422;2023-04-24T01:11:26;7.70;;;7.20;;
9392;SDS011;4736;52.508;13.422;2023-04-24T01:14:30;7.63;;;7.10;;
9392;SDS011;4736;52.508;13.422;2023-04-24T01:17:33;7.60;;;7.20;;
9392;SDS011;4736;52.508;13.422;2023-04-24T01:20:37;7.27;;;6.97;;
9392;SDS011;4736;52.508;13.422;2023-04-24T01:23:43;7.10;;;6.80;;
9392;SDS011;4736;52.508;13.422;2023-04-24T01:26:47;7.20;;;6.73;;
9392;SDS011;4736;52.508;13.422;2023-04-24T01:29:51;7.30;;;6.70;;
9392;SDS011;4736;52.508;13.422;2023-04-24T01:32:54;7.80;;;7.37;;
9392;SDS011;4736;52.508;13.422;2023-04-24T01:35:58;7.40;;;7.00;;
9392;SDS011;4736;52.508;13.422;2023-04-24T01:39:03;6.90;;;6.60;;
9392;SDS011;4736;52.508;13.422;2023-04-24T01:42:06;7.17;;;6.87;;
9392;SDS011;4736;52.508;13.422;2023-04-24T01:45:10;6.67;;;6.47;;
9392;SDS011;4736;52.508;13.422;2023-04-24T01:48:14;7.23;;;6.83;;
9392;SDS011;4736;52.508;13.422;2023-04-24T01:51:17;7.23;;;6.93;;
9392;SDS011;4736;52.508;13.422;2023-04-24T01:54:22;8.33;;;7.77;;
9392;SDS011;4736;52.508;13.422;2023-04-24T01:57:25;7.43;;;7.13;;
9392;SDS011;4736;52.508;13.422;2023-04-24T02:00:28;7.70;;;7.30;;
9392;SDS011;4736;52.508;13.422;2023-04-24T02:03:31;8.27;;;7.73;;
9392;SDS011;4736;52.508;13.422;2023-04-24T02:06:35;7.70;;;7.20;;
9392;SDS011;4736;52.508;13.422;2023-04-24T02:09:40;7.40;;;6.90;;
9392;SDS011;4736;52.508;13.422;2023-04-24T02:12:43;7.60;;;7.20;;
9392;SDS011;4736;52.508;13.422;2023-04-24T02:15:47;7.27;;;6.93;;
9392;SDS011;4736;52.508;13.422;2023-04-24T02:18:50;8.07;;;7.60;;
9392;SDS011;4736;52.508;13.422;2023-04-24T02:21:53;7.20;;;6.80;;
9392;SDS011;4736;52.508;13.422;2023-04-24T02:24:57;7.10;;;6.77;;
9392;SDS011;4736;52.508;13.422;2023-04-24T02:28:01;7.37;;;6.90;;
9392;SDS011;4736;52.508;13.422;2023-04-24T02:31:04;8.27;;;7.87;;
9392;SDS011;4736;52.508;13.422;2023-04-24T02:34:07;7.67;;;7.27;;
9392;SDS011;4736;52.508;13.422;2023-04-24T02:37:10;7.90;;;7.30;;
9392;SDS011;4736;52.508;13.422;2023-04-24T02:40:15;8.93;;;8.40;;
9392;SDS011;4736;52.508;13.422;2023-04-24T02:43:18;8.07;;;7.40;;
9392;SDS011;4736;52.508;13.422;2023-04-24T02:46:21;8.60;;;8.10;;
9392;SDS011;4736;52.508;13.422;2023-04-24T02:49:28;8.03;;;7.63;;
9392;SDS011;4736;52.508;13.422;2023-04-24T02:52:31;7.53;;;7.23;;
9392;SDS011;4736;52.508;13.422;2023-04-24T02:55:35;9.00;;;8.50;;
9392;SDS011;4736;52.508;13.422;2023-04-24T02:58:38;7.87;;;7.47;;
9392;SDS011;4736;52.508;13.422;2023-04-24T03:01:41;7.40;;;7.00;;
9392;SDS011;4736;52.508;13.422;2023-04-24T03:04:45;8.93;;;8.37;;
9392;SDS011;4736;52.508;13.422;2023-04-24T03:07:49;8.70;;;8.10;;
9392;SDS011;4736;52.508;13.422;2023-04-24T03:10:55;8.50;;;8.00;;
9392;SDS011;4736;52.508;13.422;2023-04-24T03:13:58;9.13;;;8.33;;
9392;SDS011;4736;52.508;13.422;2023-04-24T03:17:02;9.13;;;8.63;;
9392;SDS011;4736;52.508;13.422;2023-04-24T03:20:06;8.90;;;8.37;;
9392;SDS011;4736;52.508;13.422;2023-04-24T03:23:10;8.83;;;8.33;;
9392;SDS011;4736;52.508;13.422;2023-04-24T03:26:14;9.73;;;8.93;;
9392;SDS011;4736;52.508;13.422;2023-04-24T03:29:17;9.10;;;8.50;;
9392;SDS011;4736;52.508;13.422;2023-04-24T03:32:22;9.17;;;8.60;;
9392;SDS011;4736;52.508;13.422;2023-04-24T03:35:26;12.07;;;8.50;;
9392;SDS011;4736;52.508;13.422;2023-04-24T03:38:29;9.10;;;8.40;;
9392;SDS011;4736;52.508;13.422;2023-04-24T03:41:33;8.77;;;8.20;;
9392;SDS011;4736;52.508;13.422;2023-04-24T03:44:36;9.00;;;8.33;;
9392;SDS011;4736;52.508;13.422;2023-04-24T03:47:41;9.00;;;8.43;;
9392;SDS011;4736;52.508;13.422;2023-04-24T03:50:44;9.17;;;8.57;;
9392;SDS011;4736;52.508;13.422;2023-04-24T03:53:47;9.03;;;8.40;;
9392;SDS011;4736;52.508;13.422;2023-04-24T03:56:51;9.00;;;8.40;;
9392;SDS011;4736;52.508;13.422;2023-04-24T03:59:54;8.70;;;8.17;;
9392;SDS011;4736;52.508;13.422;2023-04-24T04:02:58;8.37;;;7.90;;
9392;SDS011;4736;52.508;13.422;2023-04-24T04:06:01;8.83;;;8.23;;
9392;SDS011;4736;52.508;13.422;2023-04-24T04:09:05;9.37;;;8.87;;
9392;SDS011;4736;52.508;13.422;2023-04-24T04:12:11;9.27;;;8.67;;
9392;SDS011;4736;52.508;13.422;2023-04-24T04:15:15;9.47;;;8.87;;
9392;SDS011;4736;52.508;13.422;2023-04-24T04:18:18;9.13;;;8.43;;
9392;SDS011;4736;52.508;13.422;2023-04-24T04:21:21;9.40;;;8.90;;
9392;SDS011;4736;52.508;13.422;2023-04-24T04:24:25;9.10;;;8.50;;
9392;SDS011;4736;52.508;13.422;2023-04-24T04:27:31;8.63;;;8.13;;
9392;SDS011;4736;52.508;13.422;2023-04-24T04:30:36;8.57;;;8.17;;
9392;SDS011;4736;52.508;13.422;2023-04-24T04:33:39;9.43;;;8.80;;
9392;SDS011;4736;52.508;13.422;2023-04-24T04:36:42;8.77;;;8.30;;
9392;SDS011;4736;52.508;13.422;2023-04-24T04:39:47;8.60;;;8.10;;
9392;SDS011;4736;52.508;13.422;2023-04-24T04:42:52;8.53;;;8.03;;
9392;SDS011;4736;52.508;13.422;2023-04-24T04:45:55;9.33;;;8.63;;
9392;SDS011;4736;52.508;13.422;2023-04-24T04:48:59;9.13;;;8.50;;
9392;SDS011;4736;52.508;13.422;2023-04-24T04:52:02;8.00;;;7.60;;
9392;SDS011;4736;52.508;13.422;2023-04-24T04:55:05;8.67;;;8.07;;
9392;SDS011;4736;52.508;13.422;2023-04-24T04:58:12;8.70;;;8.10;;
9392;SDS011;4736;52.508;13.422;2023-04-24T05:01:15;9.43;;;8.83;;
9392;SDS011;4736;52.508;13.422;2023-04-24T05:04:18;8.57;;;7.97;;
9392;SDS011;4736;52.508;13.422;2023-04-24T05:07:22;8.47;;;7.97;;
9392;SDS011;4736;52.508;13.422;2023-04-24T05:10:25;9.00;;;8.30;;
9392;SDS011;4736;52.508;13.422;2023-04-24T05:13:30;8.40;;;7.90;;
9392;SDS011;4736;52.508;13.422;2023-04-24T05:16:41;7.73;;;7.33;;
9392;SDS011;4736;52.508;13.422;2023-04-24T05:19:44;8.47;;;7.97;;
9392;SDS011;4736;52.508;13.422;2023-04-24T05:22:47;8.00;;;7.33;;
9392;SDS011;4736;52.508;13.422;2023-04-24T05:25:50;8.47;;;7.70;;
9392;SDS011;4736;52.508;13.422;2023-04-24T05:28:55;7.23;;;6.83;;
9392;SDS011;4736;52.508;13.422;2023-04-24T05:31:58;6.97;;;6.57;;
9392;SDS011;4736;52.508;13.422;2023-04-24T05:35:01;6.63;;;6.23;;
9392;SDS011;4736;52.508;13.422;2023-04-24T05:38:05;6.20;;;5.90;;
9392;SDS011;4736;52.508;13.422;2023-04-24T05:41:08;5.63;;;5.37;;
9392;SDS011;4736;52.508;13.422;2023-04-24T05:44:13;5.73;;;5.40;;
9392;SDS011;4736;52.508;13.422;2023-04-24T05:47:16;5.23;;;4.97;;
9392;SDS011;4736;52.508;13.422;2023-04-24T05:50:19;4.10;;;4.00;;
9392;SDS011;4736;52.508;13.422;2023-04-24T05:53:22;4.47;;;4.27;;
9392;SDS011;4736;52.508;13.422;2023-04-24T05:56:25;4.53;;;4.40;;
9392;SDS011;4736;52.508;13.422;2023-04-24T05:59:30;4.87;;;4.30;;
9392;SDS011;4736;52.508;13.422;2023-04-24T06:02:33;3.87;;;3.77;;
9392;SDS011;4736;52.508;13.422;2023-04-24T06:05:37;3.90;;;3.80;;
9392;SDS011;4736;52.508;13.422;2023-04-24T06:08:40;3.77;;;3.67;;
9392;SDS011;4736;52.508;13.422;2023-04-24T06:11:45;3.73;;;3.63;;
9392;SDS011;4736;52.508;13.422;2023-04-24T06:14:49;3.50;;;3.20;;
9392;SDS011;4736;52.508;13.422;2023-04-24T06:17:52;3.67;;;3.47;;
9392;SDS011;4736;52.508;13.422;2023-04-24T06:20:58;4.37;;;3.70;;
9392;SDS011;4736;52.508;13.422;2023-04-24T06:24:01;4.07;;;3.77;;
9392;SDS011;4736;52.508;13.422;2023-04-24T06:27:05;3.53;;;3.30;;
9392;SDS011;4736;52.508;13.422;2023-04-24T06:30:10;3.43;;;3.33;;
9392;SDS011;4736;52.508;13.422;2023-04-24T06:33:14;4.00;;;3.90;;
9392;SDS011;4736;52.508;13.422;2023-04-24T06:36:22;3.70;;;3.50;;
9392;SDS011;4736;52.508;13.422;2023-04-24T06:39:25;3.60;;;3.40;;
9392;SDS011;4736;52.508;13.422;2023-04-24T06:42:29;3.37;;;3.27;;
9392;SDS011;4736;52.508;13.422;2023-04-24T06:45:33;3.80;;;3.30;;
9392;SDS011;4736;52.508;13.422;2023-04-24T06:48:36;3.40;;;3.30;;
9392;SDS011;4736;52.508;13.422;2023-04-24T06:51:39;3.10;;;2.90;;
9392;SDS011;4736;52.508;13.422;2023-04-24T06:54:43;3.13;;;2.93;;
9392;SDS011;4736;52.508;13.422;2023-04-24T06:57:47;2.73;;;2.63;;
9392;SDS011;4736;52.508;13.422;2023-04-24T07:00:52;2.80;;;2.70;;
9392;SDS011;4736;52.508;13.422;2023-04-24T07:03:55;2.70;;;2.70;;
9392;SDS011;4736;52.508;13.422;2023-04-24T07:06:58;2.80;;;2.70;;
9392;SDS011;4736;52.508;13.422;2023-04-24T07:10:06;2.70;;;2.50;;
9392;SDS011;4736;52.508;13.422;2023-04-24T07:13:10;3.03;;;2.83;;
9392;SDS011;4736;52.508;13.422;2023-04-24T07:16:14;2.47;;;2.40;;
9392;SDS011;4736;52.508;13.422;2023-04-24T07:19:17;2.50;;;2.40;;
9392;SDS011;4736;52.508;13.422;2023-04-24T07:22:20;2.27;;;2.17;;
9392;SDS011;4736;52.508;13.422;2023-04-24T07:25:24;2.30;;;2.30;;
9392;SDS011;4736;52.508;13.422;2023-04-24T07:28:27;2.00;;;2.00;;
9392;SDS011;4736;52.508;13.422;2023-04-24T07:31:33;2.20;;;2.10;;
9392;SDS011;4736;52.508;13.422;2023-04-24T07:34:36;1.90;;;1.90;;
9392;SDS011;4736;52.508;13.422;2023-04-24T07:37:39;3.40;;;1.80;;
9392;SDS011;4736;52.508;13.422;2023-04-24T07:40:46;1.70;;;1.70;;
9392;SDS011;4736;52.508;13.422;2023-04-24T07:43:50;2.40;;;2.20;;
9392;SDS011;4736;52.508;13.422;2023-04-24T07:46:55;1.80;;;1.70;;
9392;SDS011;4736;52.508;13.422;2023-04-24T07:49:58;1.80;;;1.70;;
9392;SDS011;4736;52.508;13.422;2023-04-24T07:53:02;1.90;;;1.73;;
9392;SDS011;4736;52.508;13.422;2023-04-24T07:56:05;2.00;;;1.80;;
9392;SDS011;4736;52.508;13.422;2023-04-24T07:59:08;1.73;;;1.73;;
9392;SDS011;4736;52.508;13.422;2023-04-24T08:02:13;1.40;;;1.40;;
9392;SDS011;4736;52.508;13.422;2023-04-24T08:05:16;1.67;;;1.67;;
9392;SDS011;4736;52.508;13.422;2023-04-24T08:08:21;2.67;;;1.70;;
9392;SDS011;4736;52.508;13.422;2023-04-24T08:11:25;1.73;;;1.63;;
9392;SDS011;4736;52.508;13.422;2023-04-24T08:14:28;1.87;;;1.77;;
9392;SDS011;4736;52.508;13.422;2023-04-24T08:17:33;1.80;;;1.70;;
9392;SDS011;4736;52.508;13.422;2023-04-24T08:20:36;1.63;;;1.63;;
9392;SDS011;4736;52.508;13.422;2023-04-24T08:23:39;1.53;;;1.53;;
9392;SDS011;4736;52.508;13.422;2023-04-24T08:26:42;1.97;;;1.97;;
9392;SDS011;4736;52.508;13.422;2023-04-24T08:29:46;1.57;;;1.57;;
9392;SDS011;4736;52.508;13.422;2023-04-24T08:32:51;1.70;;;1.60;;
9392;SDS011;4736;52.508;13.422;2023-04-24T08:35:54;1.73;;;1.63;;
9392;SDS011;4736;52.508;13.422;2023-04-24T08:38:57;2.00;;;1.90;;
9392;SDS011;4736;52.508;13.422;2023-04-24T08:42:00;1.80;;;1.80;;
9392;SDS011;4736;52.508;13.422;2023-04-24T08:45:09;1.80;;;1.80;;
9392;SDS011;4736;52.508;13.422;2023-04-24T08:48:14;1.70;;;1.70;;
9392;SDS011;4736;52.508;13.422;2023-04-24T08:51:31;1.90;;;1.90;;
9392;SDS011;4736;52.508;13.422;2023-04-24T08:54:35;1.63;;;1.63;;
9392;SDS011;4736;52.508;13.422;2023-04-24T08:57:39;1.50;;;1.50;;
9392;SDS011;4736;52.508;13.422;2023-04-24T09:00:42;1.50;;;1.50;;
9392;SDS011;4736;52.508;13.422;2023-04-24T09:03:50;1.90;;;1.80;;
9392;SDS011;4736;52.508;13.422;2023-04-24T09:06:55;1.50;;;1.50;;
9392;SDS011;4736;52.508;13.422;2023-04-24T09:10:02;1.40;;;1.40;;
9392;SDS011;4736;52.508;13.422;2023-04-24T09:13:05;1.70;;;1.70;;
9392;SDS011;4736;52.508;13.422;2023-04-24T09:16:10;1.60;;;1.60;;
9392;SDS011;4736;52.508;13.422;2023-04-24T09:19:15;1.50;;;1.50;;
9392;SDS011;4736;52.508;13.422;2023-04-24T09:22:19;2.00;;;1.80;;
9392;SDS011;4736;52.508;13.422;2023-04-24T09:25:24;1.80;;;1.70;;
9392;SDS011;4736;52.508;13.422;2023-04-24T09:28:34;1.97;;;1.90;;
9392;SDS011;4736;52.508;13.422;2023-04-24T09:31:39;2.53;;;1.77;;
9392;SDS011;4736;52.508;13.422;2023-04-24T09:34:43;1.73;;;1.73;;
9392;SDS011;4736;52.508;13.422;2023-04-24T09:37:50;1.50;;;1.50;;
9392;SDS011;4736;52.508;13.422;2023-04-24T09:40:53;1.80;;;1.80;;
9392;SDS011;4736;52.508;13.422;2023-04-24T09:43:56;1.80;;;1.80;;
9392;SDS011;4736;52.508;13.422;2023-04-24T09:47:03;1.70;;;1.70;;
9392;SDS011;4736;52.508;13.422;2023-04-24T09:50:14;1.70;;;1.70;;
9392;SDS011;4736;52.508;13.422;2023-04-24T09:53:23;2.83;;;1.97;;
9392;SDS011;4736;52.508;13.422;2023-04-24T09:56:27;1.87;;;1.87;;
9392;SDS011;4736;52.508;13.422;2023-04-24T09:59:30;1.70;;;1.70;;
9392;SDS011;4736;52.508;13.422;2023-04-24T10:02:36;1.90;;;1.90;;
9392;SDS011;4736;52.508;13.422;2023-04-24T10:05:41;2.03;;;1.93;;
9392;SDS011;4736;52.508;13.422;2023-04-24T10:08:44;2.33;;;1.87;;
9392;SDS011;4736;52.508;13.422;2023-04-24T10:11:49;1.83;;;1.83;;
9392;SDS011;4736;52.508;13.422;2023-04-24T10:14:54;1.70;;;1.70;;
9392;SDS011;4736;52.508;13.422;2023-04-24T10:17:58;1.80;;;1.70;;
9392;SDS011;4736;52.508;13.422;2023-04-24T10:21:03;1.70;;;1.70;;
9392;SDS011;4736;52.508;13.422;2023-04-24T10:24:07;1.83;;;1.83;;
9392;SDS011;4736;52.508;13.422;2023-04-24T10:27:11;1.80;;;1.70;;
9392;SDS011;4736;52.508;13.422;2023-04-24T10:30:17;1.70;;;1.70;;
9392;SDS011;4736;52.508;13.422;2023-04-24T10:33:21;1.90;;;1.90;;
9392;SDS011;4736;52.508;13.422;2023-04-24T10:36:27;2.03;;;2.03;;
9392;SDS011;4736;52.508;13.422;2023-04-24T10:39:34;2.20;;;2.00;;
9392;SDS011;4736;52.508;13.422;2023-04-24T10:42:39;1.97;;;1.90;;
9392;SDS011;4736;52.508;13.422;2023-04-24T10:45:59;1.80;;;1.80;;
9392;SDS011;4736;52.508;13.422;2023-04-24T10:49:04;1.60;;;1.60;;
9392;SDS011;4736;52.508;13.422;2023-04-24T10:52:11;2.00;;;2.00;;
9392;SDS011;4736;52.508;13.422;2023-04-24T10:55:14;1.87;;;1.87;;
9392;SDS011;4736;52.508;13.422;2023-04-24T10:58:21;2.00;;;2.00;;
9392;SDS011;4736;52.508;13.422;2023-04-24T11:01:25;2.00;;;2.00;;
9392;SDS011;4736;52.508;13.422;2023-04-24T11:04:29;3.60;;;3.33;;
9392;SDS011;4736;52.508;13.422;2023-04-24T11:11:11;1.70;;;1.70;;
9392;SDS011;4736;52.508;13.422;2023-04-24T11:14:15;1.90;;;1.90;;
9392;SDS011;4736;52.508;13.422;2023-04-24T11:17:27;2.53;;;2.43;;
9392;SDS011;4736;52.508;13.422;2023-04-24T11:20:31;3.43;;;3.30;;
9392;SDS011;4736;52.508;13.422;2023-04-24T11:23:35;2.70;;;2.60;;
9392;SDS011;4736;52.508;13.422;2023-04-24T11:26:40;2.13;;;1.97;;
9392;SDS011;4736;52.508;13.422;2023-04-24T11:29:45;2.43;;;2.43;;
9392;SDS011;4736;52.508;13.422;2023-04-24T11:32:50;3.07;;;2.97;;
9392;SDS011;4736;52.508;13.422;2023-04-24T11:35:53;1.80;;;1.80;;
9392;SDS011;4736;52.508;13.422;2023-04-24T11:38:57;2.00;;;1.97;;
9392;SDS011;4736;52.508;13.422;2023-04-24T11:42:03;2.80;;;2.60;;
9392;SDS011;4736;52.508;13.422;2023-04-24T11:45:08;2.50;;;2.40;;
9392;SDS011;4736;52.508;13.422;2023-04-24T11:48:12;2.20;;;2.20;;
9392;SDS011;4736;52.508;13.422;2023-04-24T11:51:23;2.30;;;2.23;;
9392;SDS011;4736;52.508;13.422;2023-04-24T11:54:36;2.20;;;2.00;;
9392;SDS011;4736;52.508;13.422;2023-04-24T11:57:42;2.40;;;2.30;;
9392;SDS011;4736;52.508;13.422;2023-04-24T12:00:45;2.00;;;2.00;;
9392;SDS011;4736;52.508;13.422;2023-04-24T12:03:59;2.13;;;2.00;;
9392;SDS011;4736;52.508;13.422;2023-04-24T12:07:03;2.23;;;2.10;;
9392;SDS011;4736;52.508;13.422;2023-04-24T12:10:06;2.37;;;2.27;;
9392;SDS011;4736;52.508;13.422;2023-04-24T12:13:12;2.60;;;2.37;;
9392;SDS011;4736;52.508;13.422;2023-04-24T12:16:16;2.70;;;2.60;;
9392;SDS011;4736;52.508;13.422;2023-04-24T12:19:20;2.10;;;2.03;;
9392;SDS011;4736;52.508;13.422;2023-04-24T12:22:24;2.20;;;2.20;;
9392;SDS011;4736;52.508;13.422;2023-04-24T12:25:27;2.53;;;2.20;;
9392;SDS011;4736;52.508;13.422;2023-04-24T12:28:35;2.13;;;2.13;;
9392;SDS011;4736;52.508;13.422;2023-04-24T12:31:39;2.20;;;2.20;;
9392;SDS011;4736;52.508;13.422;2023-04-24T12:34:43;2.73;;;2.57;;
9392;SDS011;4736;52.508;13.422;2023-04-24T12:37:46;3.67;;;2.10;;
9392;SDS011;4736;52.508;13.422;2023-04-24T12:41:00;5.77;;;2.10;;
9392;SDS011;4736;52.508;13.422;2023-04-24T12:44:10;2.30;;;2.20;;
9392;SDS011;4736;52.508;13.422;2023-04-24T12:47:13;1.60;;;1.60;;
9392;SDS011;4736;52.508;13.422;2023-04-24T12:50:16;2.10;;;2.10;;
9392;SDS011;4736;52.508;13.422;2023-04-24T12:53:19;1.97;;;1.80;;
9392;SDS011;4736;52.508;13.422;2023-04-24T12:56:22;1.93;;;1.73;;
9392;SDS011;4736;52.508;13.422;2023-04-24T12:59:27;1.70;;;1.70;;
9392;SDS011;4736;52.508;13.422;2023-04-24T13:02:30;1.70;;;1.70;;
9392;SDS011;4736;52.508;13.422;2023-04-24T13:05:33;1.80;;;1.70;;
9392;SDS011;4736;52.508;13.422;2023-04-24T13:08:36;1.67;;;1.63;;
9392;SDS011;4736;52.508;13.422;2023-04-24T13:11:39;1.70;;;1.70;;
9392;SDS011;4736;52.508;13.422;2023-04-24T13:14:44;1.97;;;1.87;;
9392;SDS011;4736;52.508;13.422;2023-04-24T13:17:47;1.87;;;1.77;;
9392;SDS011;4736;52.508;13.422;2023-04-24T13:20:50;1.73;;;1.73;;
9392;SDS011;4736;52.508;13.422;2023-04-24T13:23:53;1.60;;;1.60;;
9392;SDS011;4736;52.508;13.422;2023-04-24T13:26:56;3.50;;;1.80;;
9392;SDS011;4736;52.508;13.422;2023-04-24T13:30:01;2.60;;;1.70;;
9392;SDS011;4736;52.508;13.422;2023-04-24T13:33:04;1.80;;;1.73;;
9392;SDS011;4736;52.508;13.422;2023-04-24T13:36:07;1.63;;;1.63;;
9392;SDS011;4736;52.508;13.422;2023-04-24T13:39:10;1.63;;;1.63;;
9392;SDS011;4736;52.508;13.422;2023-04-24T13:42:13;1.77;;;1.70;;
9392;SDS011;4736;52.508;13.422;2023-04-24T13:45:18;3.70;;;1.93;;
9392;SDS011;4736;52.508;13.422;2023-04-24T13:48:26;1.80;;;1.80;;
9392;SDS011;4736;52.508;13.422;2023-04-24T13:51:29;1.70;;;1.70;;
9392;SDS011;4736;52.508;13.422;2023-04-24T13:54:32;7.43;;;2.30;;
9392;SDS011;4736;52.508;13.422;2023-04-24T13:57:35;1.83;;;1.70;;
9392;SDS011;4736;52.508;13.422;2023-04-24T14:00:39;3.90;;;3.53;;
9392;SDS011;4736;52.508;13.422;2023-04-24T14:03:42;3.10;;;1.80;;
9392;SDS011;4736;52.508;13.422;2023-04-24T14:06:46;1.83;;;1.80;;
9392;SDS011;4736;52.508;13.422;2023-04-24T14:09:49;1.67;;;1.67;;
9392;SDS011;4736;52.508;13.422;2023-04-24T14:12:52;2.43;;;1.70;;
9392;SDS011;4736;52.508;13.422;2023-04-24T14:15:59;1.90;;;1.80;;
9392;SDS011;4736;52.508;13.422;2023-04-24T14:19:02;2.43;;;1.77;;
9392;SDS011;4736;52.508;13.422;2023-04-24T14:22:06;1.93;;;1.93;;
9392;SDS011;4736;52.508;13.422;2023-04-24T14:25:09;3.53;;;1.77;;
9392;SDS011;4736;52.508;13.422;2023-04-24T14:28:12;1.90;;;1.90;;
9392;SDS011;4736;52.508;13.422;2023-04-24T14:31:17;1.70;;;1.60;;
9392;SDS011;4736;52.508;13.422;2023-04-24T14:34:20;1.80;;;1.80;;
9392;SDS011;4736;52.508;13.422;2023-04-24T14:37:23;1.80;;;1.70;;
9392;SDS011;4736;52.508;13.422;2023-04-24T14:40:26;4.23;;;2.00;;
9392;SDS011;4736;52.508;13.422;2023-04-24T14:43:49;2.37;;;2.20;;
9392;SDS011;4736;52.508;13.422;2023-04-24T14:46:53;2.73;;;1.77;;
9392;SDS011;4736;52.508;13.422;2023-04-24T14:49:58;2.00;;;1.90;;
9392;SDS011;4736;52.508;13.422;2023-04-24T14:53:01;2.93;;;2.00;;
9392;SDS011;4736;52.508;13.422;2023-04-24T14:56:04;2.03;;;1.93;;
9392;SDS011;4736;52.508;13.422;2023-04-24T14:59:07;2.13;;;1.90;;
9392;SDS011;4736;52.508;13.422;2023-04-24T15:02:12;2.27;;;2.23;;
9392;SDS011;4736;52.508;13.422;2023-04-24T15:05:20;3.03;;;2.17;;
9392;SDS011;4736;52.508;13.422;2023-04-24T15:08:26;1.97;;;1.97;;
9392;SDS011;4736;52.508;13.422;2023-04-24T15:11:29;2.00;;;1.90;;
9392;SDS011;4736;52.508;13.422;2023-04-24T15:14:34;6.07;;;2.10;;
9392;SDS011;4736;52.508;13.422;2023-04-24T15:17:38;2.83;;;2.07;;
9392;SDS011;4736;52.508;13.422;2023-04-24T15:20:43;2.20;;;2.10;;
9392;SDS011;4736;52.508;13.422;2023-04-24T15:23:46;2.27;;;2.20;;
9392;SDS011;4736;52.508;13.422;2023-04-24T15:26:50;2.30;;;2.20;;
9392;SDS011;4736;52.508;13.422;2023-04-24T15:29:53;3.70;;;2.27;;
9392;SDS011;4736;52.508;13.422;2023-04-24T15:32:59;2.27;;;2.27;;
9392;SDS011;4736;52.508;13.422;2023-04-24T15:36:02;2.37;;;2.13;;
9392;SDS011;4736;52.508;13.422;2023-04-24T15:39:06;2.60;;;2.40;;
9392;SDS011;4736;52.508;13.422;2023-04-24T15:42:11;2.33;;;2.30;;
9392;SDS011;4736;52.508;13.422;2023-04-24T15:45:14;2.30;;;2.30;;
9392;SDS011;4736;52.508;13.422;2023-04-24T15:48:18;2.10;;;2.10;;
9392;SDS011;4736;52.508;13.422;2023-04-24T15:51:21;2.13;;;2.13;;
9392;SDS011;4736;52.508;13.422;2023-04-24T15:54:25;2.40;;;2.33;;
9392;SDS011;4736;52.508;13.422;2023-04-24T15:57:28;2.27;;;2.27;;
9392;SDS011;4736;52.508;13.422;2023-04-24T16:00:31;2.37;;;2.20;;
9392;SDS011;4736;52.508;13.422;2023-04-24T16:03:37;2.30;;;2.30;;
9392;SDS011;4736;52.508;13.422;2023-04-24T16:06:41;2.23;;;2.20;;
9392;SDS011;4736;52.508;13.422;2023-04-24T16:09:44;2.20;;;2.20;;
9392;SDS011;4736;52.508;13.422;2023-04-24T16:12:47;2.00;;;1.90;;
9392;SDS011;4736;52.508;13.422;2023-04-24T16:15:51;2.20;;;2.20;;
9392;SDS011;4736;52.508;13.422;2023-04-24T16:18:56;2.43;;;2.37;;
9392;SDS011;4736;52.508;13.422;2023-04-24T16:21:59;2.67;;;2.60;;
9392;SDS011;4736;52.508;13.422;2023-04-24T16:25:03;4.83;;;2.80;;
9392;SDS011;4736;52.508;13.422;2023-04-24T16:28:08;5.80;;;2.77;;
9392;SDS011;4736;52.508;13.422;2023-04-24T16:31:11;6.17;;;2.60;;
9392;SDS011;4736;52.508;13.422;2023-04-24T16:34:15;2.23;;;2.23;;
9392;SDS011;4736;52.508;13.422;2023-04-24T16:37:18;2.53;;;2.40;;
9392;SDS011;4736;52.508;13.422;2023-04-24T16:40:21;2.10;;;2.00;;
9392;SDS011;4736;52.508;13.422;2023-04-24T16:43:25;2.33;;;2.17;;
9392;SDS011;4736;52.508;13.422;2023-04-24T16:46:28;2.87;;;2.50;;
9392;SDS011;4736;52.508;13.422;2023-04-24T16:49:32;2.83;;;2.67;;
9392;SDS011;4736;52.508;13.422;2023-04-24T16:52:35;2.30;;;2.30;;
9392;SDS011;4736;52.508;13.422;2023-04-24T16:55:39;2.17;;;2.10;;
9392;SDS011;4736;52.508;13.422;2023-04-24T16:58:42;2.73;;;2.10;;
9392;SDS011;4736;52.508;13.422;2023-04-24T17:01:45;4.33;;;2.13;;
9392;SDS011;4736;52.508;13.422;2023-04-24T17:04:50;4.20;;;2.07;;
9392;SDS011;4736;52.508;13.422;2023-04-24T17:07:54;2.40;;;1.90;;
9392;SDS011;4736;52.508;13.422;2023-04-24T17:10:57;1.97;;;1.87;;
9392;SDS011;4736;52.508;13.422;2023-04-24T17:14:00;2.40;;;2.30;;
9392;SDS011;4736;52.508;13.422;2023-04-24T17:17:03;2.47;;;2.37;;
9392;SDS011;4736;52.508;13.422;2023-04-24T17:20:08;2.40;;;2.40;;
9392;SDS011;4736;52.508;13.422;2023-04-24T17:23:23;2.40;;;2.30;;
9392;SDS011;4736;52.508;13.422;2023-04-24T17:26:26;2.40;;;2.40;;
9392;SDS011;4736;52.508;13.422;2023-04-24T17:29:32;2.40;;;2.40;;
9392;SDS011;4736;52.508;13.422;2023-04-24T17:32:35;2.43;;;2.30;;
9392;SDS011;4736;52.508;13.422;2023-04-24T17:35:40;2.40;;;2.37;;
9392;SDS011;4736;52.508;13.422;2023-04-24T17:38:43;2.63;;;2.47;;
9392;SDS011;4736;52.508;13.422;2023-04-24T17:41:46;2.60;;;2.50;;
9392;SDS011;4736;52.508;13.422;2023-04-24T17:44:49;2.77;;;2.77;;
9392;SDS011;4736;52.508;13.422;2023-04-24T17:47:52;2.40;;;2.40;;
9392;SDS011;4736;52.508;13.422;2023-04-24T17:50:58;3.80;;;2.70;;
9392;SDS011;4736;52.508;13.422;2023-04-24T17:54:01;2.60;;;2.60;;
9392;SDS011;4736;52.508;13.422;2023-04-24T17:57:04;3.27;;;2.77;;
9392;SDS011;4736;52.508;13.422;2023-04-24T18:00:07;2.90;;;2.77;;
9392;SDS011;4736;52.508;13.422;2023-04-24T18:03:11;2.47;;;2.47;;
9392;SDS011;4736;52.508;13.422;2023-04-24T18:06:16;2.97;;;2.90;;
9392;SDS011;4736;52.508;13.422;2023-04-24T18:09:19;2.30;;;2.27;;
9392;SDS011;4736;52.508;13.422;2023-04-24T18:12:22;2.63;;;2.43;;
9392;SDS011;4736;52.508;13.422;2023-04-24T18:15:25;2.93;;;2.63;;
9392;SDS011;4736;52.508;13.422;2023-04-24T18:18:28;2.90;;;2.80;;
9392;SDS011;4736;52.508;13.422;2023-04-24T18:21:38;4.17;;;2.60;;
9392;SDS011;4736;52.508;13.422;2023-04-24T18:24:42;3.43;;;3.33;;
9392;SDS011;4736;52.508;13.422;2023-04-24T18:27:45;2.20;;;2.20;;
9392;SDS011;4736;52.508;13.422;2023-04-24T18:30:48;2.50;;;2.20;;
9392;SDS011;4736;52.508;13.422;2023-04-24T18:33:51;2.23;;;2.20;;
9392;SDS011;4736;52.508;13.422;2023-04-24T18:36:57;2.60;;;2.60;;
9392;SDS011;4736;52.508;13.422;2023-04-24T18:40:00;2.97;;;2.67;;
9392;SDS011;4736;52.508;13.422;2023-04-24T18:43:04;2.67;;;2.57;;
9392;SDS011;4736;52.508;13.422;2023-04-24T18:46:07;2.13;;;2.13;;
9392;SDS011;4736;52.508;13.422;2023-04-24T18:49:10;2.20;;;2.20;;